Time,TemperatureF,DewpointF,PressureIn,WindDirection,WindDirectionDegrees,WindSpeedMPH,WindSpeedGustMPH,Humidity,HourlyPrecipIn,Conditions,Clouds,dailyrainin,SoftwareType,DateUTC
2013-03-12 00:03:00,42.0,-99.9,30.18,South,169,8.0,10.0,-999,-99.99,,,-99.99,,2013-03-12 04:03:00,
2013-03-12 00:23:00,-999.0,-99.9,30.17,SW,216,3.0,5.0,-999,-99.99,,,-99.99,,2013-03-12 04:23:00,
2013-03-12 00:43:00,41.0,-99.9,30.16,North,-999,-999.0,-999.0,-999,-99.99,,,-99.99,,2013-03-12 04:43:00,
2013-03-12 00:52:00,42.0,-99.9,30.15,North,-999,-999.0,-999.0,-999,-99.99,,,-99.99,,2013-03-12 04:52:00,
2013-03-12 01:03:00,-999.0,-99.9,30.15,SSE,166,10.0,12.0,-999,-99.99,,,-99.99,,2013-03-12 05:03:00,
2013-03-12 01:12:00,-999.0,-99.9,30.16,South,169,10.0,14.0,-999,-99.99,,,-99.99,,2013-03-12 05:12:00,
2013-03-12 01:22:00,45.0,-99.9,30.17,North,-999,-999.0,-999.0,-999,-99.99,,,-99.99,,2013-03-12 05:22:00,
2013-03-12 01:33:00,45.0,-99.9,30.16,North,-999,-999.0,-999.0,-999,-99.99,,,-99.99,,2013-03-12 05:33:00,
2013-03-12 01:42:00,-999.0,-99.9,30.16,South,171,11.0,13.0,-999,-99.99,,,-99.99,,2013-03-12 05:42:00,
2013-03-12 01:52:00,46.0,-99.9,30.16,North,-999,-999.0,-999.0,-999,-99.99,,,-99.99,,2013-03-12 05:52:00,
2013-03-12 02:12:00,-999.0,-99.9,30.14,SSE,152,12.0,16.0,-999,-99.99,,,-99.99,,2013-03-12 06:12:00,
2013-03-12 02:22:00,46.0,-99.9,30.14,North,-999,-999.0,-999.0,-999,-99.99,,,-99.99,,2013-03-12 06:22:00,
2013-03-12 02:32:00,-999.0,-99.9,30.14,SSE,156,14.0,17.0,-999,-99.99,,,-99.99,,2013-03-12 06:32:00,
2013-03-12 02:42:00,-999.0,-99.9,30.14,SSE,163,13.0,18.0,-999,-99.99,,,-99.99,,2013-03-12 06:42:00,
2013-03-12 02:52:00,46.0,-99.9,30.13,SSE,165,13.0,19.0,-999,-99.99,,,-99.99,,2013-03-12 06:52:00,
2013-03-12 03:02:00,46.0,-99.9,30.12,North,-999,-999.0,-999.0,-999,-99.99,,,-99.99,,2013-03-12 07:02:00,
2013-03-12 03:12:00,-999.0,-99.9,30.12,South,169,13.0,17.0,-999,-99.99,,,-99.99,,2013-03-12 07:12:00,
2013-03-12 03:22:00,-999.0,-99.9,30.12,South,176,13.0,15.0,-999,-99.99,,,-99.99,,2013-03-12 07:22:00,
2013-03-12 03:32:00,-999.0,-99.9,30.11,South,175,15.0,18.0,-999,-99.99,,,-99.99,,2013-03-12 07:32:00,
2013-03-12 03:42:00,46.0,-99.9,30.11,North,-999,-999.0,-999.0,-999,-99.99,,,-99.99,,2013-03-12 07:42:00,
2013-03-12 03:53:00,-999.0,-99.9,30.10,SSE,168,17.0,21.0,-999,-99.99,,,-99.99,,2013-03-12 07:53:00,
2013-03-12 04:02:00,-999.0,-99.9,30.09,SSE,162,17.0,22.0,-999,-99.99,,,-99.99,,2013-03-12 08:02:00,
2013-03-12 04:22:00,47.0,-99.9,30.08,North,-999,-999.0,-999.0,-999,-99.99,,,-99.99,,2013-03-12 08:22:00,
2013-03-12 04:33:00,-999.0,-99.9,30.07,SSE,168,22.0,27.0,-999,-99.99,,,-99.99,,2013-03-12 08:33:00,
2013-03-12 04:42:00,-999.0,-99.9,30.07,SSE,167,20.0,27.0,-999,-99.99,,,-99.99,,2013-03-12 08:42:00,
2013-03-12 04:52:00,48.0,-99.9,30.06,North,-999,-999.0,-999.0,-999,-99.99,,,-99.99,,2013-03-12 08:52:00,
2013-03-12 05:03:00,48.0,-99.9,30.06,North,-999,-999.0,-999.0,-999,-99.99,,,-99.99,,2013-03-12 09:03:00,
2013-03-12 05:22:00,48.0,-99.9,30.06,North,-999,-999.0,-999.0,-999,-99.99,,,-99.99,,2013-03-12 09:22:00,
2013-03-12 05:43:00,49.0,-99.9,30.06,North,-999,-999.0,-999.0,-999,-99.99,,,-99.99,,2013-03-12 09:43:00,
2013-03-12 05:53:00,49.0,-99.9,30.06,North,-999,-999.0,-999.0,-999,-99.99,,,-99.99,,2013-03-12 09:53:00,
2013-03-12 06:02:00,49.0,-99.9,30.06,North,-999,-999.0,-999.0,-999,-99.99,,,-99.99,,2013-03-12 10:02:00,
2013-03-12 06:12:00,-999.0,-99.9,30.06,SSE,164,21.0,26.0,-999,-99.99,,,-99.99,,2013-03-12 10:12:00,
2013-03-12 06:23:00,49.0,-99.9,30.05,North,-999,-999.0,-999.0,-999,-99.99,,,-99.99,,2013-03-12 10:23:00,
2013-03-12 06:33:00,-999.0,-99.9,30.06,South,169,20.0,27.0,-999,-99.99,,,-99.99,,2013-03-12 10:33:00,
2013-03-12 06:42:00,-999.0,-99.9,30.06,SSE,167,21.0,27.0,-999,-99.99,,,-99.99,,2013-03-12 10:42:00,
2013-03-12 06:53:00,-999.0,-99.9,30.06,SSE,166,21.0,27.0,-999,-99.99,,,-99.99,,2013-03-12 10:53:00,
2013-03-12 07:02:00,-999.0,-99.9,30.05,SSE,164,20.0,24.0,-999,-99.99,,,-99.99,,2013-03-12 11:02:00,
2013-03-12 07:22:00,49.0,-99.9,30.05,North,-999,-999.0,-999.0,-999,-99.99,,,-99.99,,2013-03-12 11:22:00,
2013-03-12 07:33:00,49.0,-99.9,30.04,North,-999,-999.0,-999.0,-999,-99.99,,,-99.99,,2013-03-12 11:33:00,
2013-03-12 07:42:00,49.0,-99.9,30.04,North,-999,-999.0,-999.0,-999,-99.99,,,-99.99,,2013-03-12 11:42:00,
2013-03-12 07:52:00,49.0,-99.9,30.04,North,-999,-999.0,-999.0,-999,-99.99,,,-99.99,,2013-03-12 11:52:00,
2013-03-12 08:03:00,49.0,-99.9,30.04,North,-999,-999.0,-999.0,-999,-99.99,,,-99.99,,2013-03-12 12:03:00,
2013-03-12 08:12:00,-999.0,-99.9,30.04,SSE,159,20.0,24.0,-999,-99.99,,,-99.99,,2013-03-12 12:12:00,
2013-03-12 08:22:00,49.0,-99.9,30.04,North,-999,-999.0,-999.0,-999,-99.99,,,-99.99,,2013-03-12 12:22:00,
2013-03-12 08:32:00,-999.0,-99.9,30.04,SSE,150,20.0,26.0,-999,-99.99,,,-99.99,,2013-03-12 12:32:00,
2013-03-12 08:42:00,-999.0,-99.9,30.04,SSE,153,22.0,29.0,-999,-99.99,,,-99.99,,2013-03-12 12:42:00,
2013-03-12 08:52:00,48.0,-99.9,30.04,North,-999,-999.0,-999.0,-999,-99.99,,,-99.99,,2013-03-12 12:52:00,
2013-03-12 09:02:00,-999.0,-99.9,30.03,SSE,150,19.0,26.0,-999,-99.99,,,-99.99,,2013-03-12 13:02:00,
2013-03-12 09:12:00,-999.0,-99.9,30.03,SSE,148,22.0,26.0,-999,-99.99,,,-99.99,,2013-03-12 13:12:00,
2013-03-12 09:22:00,48.0,-99.9,30.04,North,-999,-999.0,-999.0,-999,-99.99,,,-99.99,,2013-03-12 13:22:00,
2013-03-12 09:33:00,47.0,-99.9,30.05,SSE,153,19.0,28.0,-999,-99.99,,,-99.99,,2013-03-12 13:33:00,
2013-03-12 09:43:00,-999.0,-99.9,30.05,SSE,155,21.0,27.0,-999,-99.99,,,-99.99,,2013-03-12 13:43:00,
2013-03-12 09:52:00,-999.0,-99.9,30.04,SSE,149,21.0,29.0,-999,-99.99,,,-99.99,,2013-03-12 13:52:00,
2013-03-12 10:02:00,48.0,-99.9,30.04,North,-999,-999.0,-999.0,-999,-99.99,,,-99.99,,2013-03-12 14:02:00,
2013-03-12 10:12:00,-999.0,-99.9,30.04,SSE,153,20.0,28.0,-999,-99.99,,,-99.99,,2013-03-12 14:12:00,
2013-03-12 10:22:00,48.0,-99.9,30.03,North,-999,-999.0,-999.0,-999,-99.99,,,-99.99,,2013-03-12 14:22:00,
2013-03-12 10:33:00,-999.0,-99.9,30.03,SE,146,21.0,26.0,-999,-99.99,,,-99.99,,2013-03-12 14:33:00,
2013-03-12 10:43:00,-999.0,-99.9,30.03,SE,146,20.0,23.0,-999,-99.99,,,-99.99,,2013-03-12 14:43:00,
2013-03-12 10:53:00,48.0,-99.9,30.03,SSE,149,19.0,24.0,-999,-99.99,,,-99.99,,2013-03-12 14:53:00,
2013-03-12 11:03:00,48.0,-99.9,30.03,North,-999,-999.0,-999.0,-999,-99.99,,,-99.99,,2013-03-12 15:03:00,
2013-03-12 11:23:00,-999.0,-99.9,30.01,SE,144,19.0,25.0,-999,-99.99,,,-99.99,,2013-03-12 15:23:00,
2013-03-12 11:33:00,48.0,-99.9,30.01,North,-999,-999.0,-999.0,-999,-99.99,,,-99.99,,2013-03-12 15:33:00,
2013-03-12 11:43:00,48.0,-99.9,30.01,North,-999,-999.0,-999.0,-999,-99.99,,,-99.99,,2013-03-12 15:43:00,
2013-03-12 11:53:00,48.0,-99.9,30.00,North,-999,-999.0,-999.0,-999,-99.99,,,-99.99,,2013-03-12 15:53:00,
2013-03-12 12:03:00,48.0,-99.9,30.00,North,-999,-999.0,-999.0,-999,-99.99,,,-99.99,,2013-03-12 16:03:00,
2013-03-12 12:23:00,49.0,-99.9,29.99,North,-999,-999.0,-999.0,-999,-99.99,,,-99.99,,2013-03-12 16:23:00,
2013-03-12 12:33:00,49.0,-99.9,29.99,North,-999,-999.0,-999.0,-999,-99.99,,,-99.99,,2013-03-12 16:33:00,
2013-03-12 12:43:00,49.0,-99.9,29.99,North,-999,-999.0,-999.0,-999,-99.99,,,-99.99,,2013-03-12 16:43:00,
2013-03-12 12:53:00,-999.0,-99.9,29.98,SSE,149,18.0,27.0,-999,-99.99,,,-99.99,,2013-03-12 16:53:00,
2013-03-12 13:03:00,-999.0,-99.9,29.97,SSE,147,20.0,29.0,-999,-99.99,,,-99.99,,2013-03-12 17:03:00,
2013-03-12 13:23:00,-999.0,-99.9,29.96,SE,146,21.0,26.0,-999,-99.99,,,-99.99,,2013-03-12 17:23:00,
2013-03-12 13:44:00,-999.0,-99.9,29.96,SSE,148,20.0,26.0,-999,-99.99,,,-99.99,,2013-03-12 17:44:00,
2013-03-12 13:54:00,49.0,-99.9,29.95,North,-999,-999.0,-999.0,-999,-99.99,,,-99.99,,2013-03-12 17:54:00,
2013-03-12 14:03:00,-999.0,-99.9,29.95,SSE,150,19.0,28.0,-999,-99.99,,,-99.99,,2013-03-12 18:03:00,
2013-03-12 14:13:00,-999.0,-99.9,29.94,SSE,149,19.0,26.0,-999,-99.99,,,-99.99,,2013-03-12 18:13:00,
2013-03-12 14:23:00,49.0,-99.9,29.94,North,-999,-999.0,-999.0,-999,-99.99,,,-99.99,,2013-03-12 18:23:00,
2013-03-12 14:33:00,-999.0,-99.9,29.93,SSE,148,21.0,26.0,-999,-99.99,,,-99.99,,2013-03-12 18:33:00,
2013-03-12 14:43:00,-999.0,-99.9,29.93,SSE,149,20.0,28.0,-999,-99.99,,,-99.99,,2013-03-12 18:43:00,
2013-03-12 14:54:00,49.0,-99.9,29.92,SSE,152,23.0,28.0,-999,-99.99,,,-99.99,,2013-03-12 18:54:00,
2013-03-12 15:04:00,-999.0,-99.9,29.92,SSE,152,20.0,29.0,-999,-99.99,,,-99.99,,2013-03-12 19:04:00,
2013-03-12 15:23:00,49.0,-99.9,29.91,North,-999,-999.0,-999.0,-999,-99.99,,,-99.99,,2013-03-12 19:23:00,
2013-03-12 15:33:00,-999.0,-99.9,29.90,SSE,149,22.0,28.0,-999,-99.99,,,-99.99,,2013-03-12 19:33:00,
2013-03-12 15:44:00,49.0,-99.9,29.90,SSE,153,20.0,29.0,-999,-99.99,,,-99.99,,2013-03-12 19:44:00,
2013-03-12 15:53:00,-999.0,-99.9,29.90,SSE,152,22.0,30.0,-999,-99.99,,,-99.99,,2013-03-12 19:53:00,
2013-03-12 16:02:00,-999.0,-99.9,29.89,SE,146,23.0,29.0,-999,-99.99,,,-99.99,,2013-03-12 20:02:00,
2013-03-12 16:23:00,49.0,-99.9,29.88,North,-999,-999.0,-999.0,-999,-99.99,,,-99.99,,2013-03-12 20:23:00,
2013-03-12 16:33:00,-999.0,-99.9,29.88,SE,145,20.0,28.0,-999,-99.99,,,-99.99,,2013-03-12 20:33:00,
2013-03-12 16:42:00,-999.0,-99.9,29.87,SE,143,19.0,28.0,-999,-99.99,,,-99.99,,2013-03-12 20:42:00,
2013-03-12 16:53:00,48.0,-99.9,29.86,North,-999,-999.0,-999.0,-999,-99.99,,,-99.99,,2013-03-12 20:53:00,
2013-03-12 17:23:00,48.0,-99.9,29.85,North,-999,-999.0,-999.0,-999,-99.99,,,-99.99,,2013-03-12 21:23:00,
2013-03-12 17:33:00,-999.0,-99.9,29.84,SE,139,20.0,26.0,-999,-99.99,,,-99.99,,2013-03-12 21:33:00,
2013-03-12 17:43:00,-999.0,-99.9,29.84,SE,144,18.0,23.0,-999,-99.99,,,-99.99,,2013-03-12 21:43:00,
2013-03-12 17:53:00,48.0,-99.9,29.83,North,-999,-999.0,-999.0,-999,-99.99,,,-99.99,,2013-03-12 21:53:00,
2013-03-12 18:03:00,48.0,-99.9,29.82,North,-999,-999.0,-999.0,-999,-99.99,,,-99.99,,2013-03-12 22:03:00,
2013-03-12 18:13:00,-999.0,-99.9,29.81,SE,130,19.0,25.0,-999,-99.99,,,-99.99,,2013-03-12 22:13:00,
2013-03-12 18:23:00,48.0,-99.9,29.80,North,-999,-999.0,-999.0,-999,-99.99,,,-99.99,,2013-03-12 22:23:00,
2013-03-12 18:33:00,-999.0,-99.9,29.80,SE,134,20.0,27.0,-999,-99.99,,,-99.99,,2013-03-12 22:33:00,
2013-03-12 18:43:00,-999.0,-99.9,29.80,SE,136,20.0,29.0,-999,-99.99,,,-99.99,,2013-03-12 22:43:00,
2013-03-12 18:54:00,-999.0,-99.9,29.79,SE,141,20.0,26.0,-999,-99.99,,,-99.99,,2013-03-12 22:54:00,
2013-03-12 19:03:00,48.0,-99.9,29.79,North,-999,-999.0,-999.0,-999,-99.99,,,-99.99,,2013-03-12 23:03:00,
2013-03-12 19:12:00,-999.0,-99.9,29.78,SSE,148,22.0,32.0,-999,-99.99,,,-99.99,,2013-03-12 23:12:00,
2013-03-12 19:23:00,49.0,-99.9,29.77,North,-999,-999.0,-999.0,-999,-99.99,,,-99.99,,2013-03-12 23:23:00,
2013-03-12 19:34:00,50.0,-99.9,29.77,North,-999,-999.0,-999.0,-999,-99.99,,,-99.99,,2013-03-12 23:34:00,
2013-03-12 19:44:00,-999.0,-99.9,29.76,SSE,150,21.0,33.0,-999,-99.99,,,-99.99,,2013-03-12 23:44:00,
2013-03-12 19:53:00,50.0,-99.9,29.76,North,-999,-999.0,-999.0,-999,-99.99,,,-99.99,,2013-03-12 23:53:00,
2013-03-12 20:13:00,-999.0,-99.9,29.75,SSE,155,23.0,34.0,-999,-99.99,,,-99.99,,2013-03-13 00:13:00,
2013-03-12 20:23:00,50.0,-99.9,29.75,North,-999,-999.0,-999.0,-999,-99.99,,,-99.99,,2013-03-13 00:23:00,
2013-03-12 20:33:00,50.0,-99.9,29.75,North,-999,-999.0,-999.0,-999,-99.99,,,-99.99,,2013-03-13 00:33:00,
2013-03-12 20:42:00,-999.0,-99.9,29.75,SSE,166,24.0,33.0,-999,-99.99,,,-99.99,,2013-03-13 00:42:00,
2013-03-12 20:53:00,-999.0,-99.9,29.76,SSE,167,25.0,34.0,-999,-99.99,,,-99.99,,2013-03-13 00:53:00,
2013-03-12 21:03:00,49.0,-99.9,29.76,North,-999,-999.0,-999.0,-999,-99.99,,,-99.99,,2013-03-13 01:03:00,
2013-03-12 21:13:00,-999.0,-99.9,29.76,SSE,166,23.0,32.0,-999,-99.99,,,-99.99,,2013-03-13 01:13:00,
2013-03-12 21:22:00,-999.0,-99.9,29.76,South,169,20.0,27.0,-999,-99.99,,,-99.99,,2013-03-13 01:22:00,
2013-03-12 21:33:00,48.0,-99.9,29.75,North,-999,-999.0,-999.0,-999,-99.99,,,-99.99,,2013-03-13 01:33:00,
2013-03-12 21:43:00,47.0,-99.9,29.78,North,-999,-999.0,-999.0,-999,-99.99,,,-99.99,,2013-03-13 01:43:00,
2013-03-12 21:53:00,47.0,-99.9,29.78,North,-999,-999.0,-999.0,-999,-99.99,,,-99.99,,2013-03-13 01:53:00,
2013-03-12 22:03:00,46.0,-99.9,29.78,North,-999,-999.0,-999.0,-999,-99.99,,,-99.99,,2013-03-13 02:03:00,
2013-03-12 22:12:00,-999.0,-99.9,29.78,SSW,208,13.0,15.0,-999,-99.99,,,-99.99,,2013-03-13 02:12:00,
2013-03-12 22:23:00,-999.0,-99.9,29.78,SSW,192,15.0,17.0,-999,-99.99,,,-99.99,,2013-03-13 02:23:00,
2013-03-12 22:33:00,-999.0,-99.9,29.77,SSW,194,13.0,16.0,-999,-99.99,,,-99.99,,2013-03-13 02:33:00,
2013-03-12 22:53:00,48.0,-99.9,29.75,North,-999,-999.0,-999.0,-999,-99.99,,,-99.99,,2013-03-13 02:53:00,
2013-03-12 23:13:00,-999.0,-99.9,29.74,SSW,197,15.0,18.0,-999,-99.99,,,-99.99,,2013-03-13 03:13:00,
2013-03-12 23:22:00,-999.0,-99.9,29.75,SSW,198,13.0,19.0,-999,-99.99,,,-99.99,,2013-03-13 03:22:00,
2013-03-12 23:33:00,48.0,-99.9,29.75,North,-999,-999.0,-999.0,-999,-99.99,,,-99.99,,2013-03-13 03:33:00,
2013-03-12 23:43:00,-999.0,-99.9,29.75,SSW,213,13.0,17.0,-999,-99.99,,,-99.99,,2013-03-13 03:43:00,
2013-03-12 23:53:00,-999.0,-99.9,29.75,SW,221,11.0,14.0,-999,-99.99,,,-99.99,,2013-03-13 03:53:00,